createdAt,value
2023-03-25T00:01:38.272Z,1.30
2023-03-25T00:04:07.293Z,1.02
2023-03-25T00:06:34.746Z,1.50
2023-03-25T00:09:02.716Z,1.20
2023-03-25T00:11:29.590Z,1.10
2023-03-25T00:13:56.510Z,1.23
2023-03-25T00:16:23.545Z,1.38
2023-03-25T00:18:51.449Z,1.58
2023-03-25T00:21:22.338Z,1.40
2023-03-25T00:23:49.144Z,2.20
2023-03-25T00:26:18.653Z,1.52
2023-03-25T00:28:45.358Z,1.83
2023-03-25T00:31:15.630Z,1.60
2023-03-25T00:33:42.823Z,1.83
2023-03-25T00:36:18.129Z,1.67
2023-03-25T00:38:45.705Z,1.30
2023-03-25T00:41:22.989Z,1.27
2023-03-25T00:43:51.483Z,1.55
2023-03-25T00:46:18.551Z,1.27
2023-03-25T00:48:45.467Z,1.55
2023-03-25T00:51:13.814Z,1.25
2023-03-25T00:53:41.018Z,1.20
2023-03-25T00:56:08.366Z,1.65
2023-03-25T00:58:37.374Z,1.83
2023-03-25T01:01:16.610Z,1.45
2023-03-25T01:03:44.777Z,1.05
2023-03-25T01:06:17.021Z,0.93
2023-03-25T01:08:48.182Z,1.50
2023-03-25T01:11:21.693Z,1.30
2023-03-25T01:13:51.425Z,2.22
2023-03-25T01:16:18.408Z,1.17
2023-03-25T01:18:45.413Z,1.40
2023-03-25T01:21:15.083Z,1.90
2023-03-25T01:23:41.902Z,1.40
2023-03-25T01:26:08.567Z,1.30
2023-03-25T01:28:35.292Z,1.60
2023-03-25T01:31:04.171Z,1.73
2023-03-25T01:33:32.774Z,1.58
2023-03-25T01:36:01.021Z,1.45
2023-03-25T01:38:37.534Z,1.02
2023-03-25T01:41:05.106Z,1.52
2023-03-25T01:43:32.108Z,1.30
2023-03-25T01:45:59.527Z,1.40
2023-03-25T01:48:35.798Z,1.48
2023-03-25T01:51:17.571Z,2.22
2023-03-25T01:53:47.781Z,1.73
2023-03-25T01:56:19.483Z,1.57
2023-03-25T01:58:46.667Z,1.58
2023-03-25T02:01:16.119Z,1.15
2023-03-25T02:03:46.386Z,1.40
2023-03-25T02:06:31.937Z,1.42
2023-03-25T02:09:01.717Z,1.45
2023-03-25T02:11:29.684Z,1.33
2023-03-25T02:14:03.107Z,1.65
2023-03-25T02:17:03.494Z,1.50
2023-03-25T02:19:40.939Z,1.73
2023-03-25T02:22:42.072Z,1.40
2023-03-25T02:25:35.601Z,1.48
2023-03-25T02:28:29.859Z,1.35
2023-03-25T02:30:59.465Z,1.58
2023-03-25T02:33:54.011Z,1.17
2023-03-25T02:36:42.342Z,1.40
2023-03-25T02:39:49.952Z,1.40
2023-03-25T02:42:19.534Z,1.60
2023-03-25T02:45:11.920Z,1.77
2023-03-25T02:47:47.711Z,2.33
2023-03-25T02:50:20.890Z,1.15
2023-03-25T02:52:54.412Z,1.55
2023-03-25T02:55:23.127Z,1.77
2023-03-25T02:57:53.296Z,1.58
2023-03-25T03:00:24.440Z,2.00
2023-03-25T03:03:00.177Z,1.27
2023-03-25T03:05:29.048Z,1.35
2023-03-25T03:08:19.140Z,1.70
2023-03-25T03:11:06.245Z,1.60
2023-03-25T03:13:57.993Z,2.00
2023-03-25T03:16:36.461Z,1.40
2023-03-25T03:19:27.566Z,1.40
2023-03-25T03:22:21.539Z,1.40
2023-03-25T03:25:02.168Z,2.15
2023-03-25T03:27:33.909Z,1.38
2023-03-25T03:30:10.606Z,1.67
2023-03-25T03:32:53.849Z,1.65
2023-03-25T03:35:40.855Z,1.75
2023-03-25T03:38:16.425Z,1.70
2023-03-25T03:40:50.273Z,1.75
2023-03-25T03:43:25.279Z,1.98
2023-03-25T03:45:57.415Z,1.60
2023-03-25T03:48:34.632Z,2.25
2023-03-25T03:51:09.587Z,1.63
2023-03-25T03:53:45.645Z,2.05
2023-03-25T03:56:22.162Z,2.17
2023-03-25T03:58:58.554Z,1.85
2023-03-25T04:01:46.197Z,1.60
2023-03-25T04:04:23.983Z,1.95
2023-03-25T04:07:04.675Z,1.90
2023-03-25T04:09:43.799Z,2.15
2023-03-25T04:12:34.790Z,1.83
2023-03-25T04:15:06.249Z,2.08
2023-03-25T04:17:37.773Z,1.95
2023-03-25T04:20:09.189Z,1.67
2023-03-25T04:22:46.091Z,2.13
2023-03-25T04:25:17.555Z,1.40
2023-03-25T04:27:48.883Z,1.95
2023-03-25T04:30:19.374Z,1.80
2023-03-25T04:32:47.514Z,1.63
2023-03-25T04:35:19.245Z,1.75
2023-03-25T04:37:48.999Z,1.70
2023-03-25T04:40:19.136Z,1.85
2023-03-25T04:42:46.649Z,1.60
2023-03-25T04:45:17.614Z,1.40
2023-03-25T04:47:49.356Z,1.80
2023-03-25T04:50:22.659Z,1.58
2023-03-25T04:52:50.550Z,1.42
2023-03-25T04:55:23.059Z,1.52
2023-03-25T04:57:51.513Z,1.75
2023-03-25T05:00:24.344Z,1.67
2023-03-25T05:02:56.380Z,1.70
2023-03-25T05:05:25.102Z,1.40
2023-03-25T05:07:54.738Z,1.90
2023-03-25T05:10:23.789Z,1.90
2023-03-25T05:12:50.532Z,1.75
2023-03-25T05:15:19.548Z,1.70
2023-03-25T05:17:46.319Z,1.95
2023-03-25T05:20:16.413Z,2.40
2023-03-25T05:22:43.356Z,1.80
2023-03-25T05:25:13.634Z,1.70
2023-03-25T05:27:42.747Z,1.73
2023-03-25T05:30:10.114Z,1.85
2023-03-25T05:32:37.007Z,1.67
2023-03-25T05:35:04.600Z,1.70
2023-03-25T05:37:33.833Z,1.77
2023-03-25T05:40:04.069Z,1.98
2023-03-25T05:42:47.096Z,2.05
2023-03-25T05:45:13.950Z,2.30
2023-03-25T05:47:41.325Z,2.40
2023-03-25T05:50:08.822Z,2.15
2023-03-25T05:52:41.501Z,2.45
2023-03-25T05:55:12.851Z,2.45
2023-03-25T05:57:39.493Z,2.13
2023-03-25T06:00:08.518Z,1.52
2023-03-25T06:02:38.847Z,2.25
2023-03-25T06:05:10.054Z,2.00
2023-03-25T06:07:37.588Z,1.55
2023-03-25T06:10:05.649Z,2.22
2023-03-25T06:12:38.768Z,2.55
2023-03-25T06:15:10.906Z,1.90
2023-03-25T06:17:40.992Z,2.08
2023-03-25T06:20:13.189Z,1.70
2023-03-25T06:22:42.843Z,1.95
2023-03-25T06:25:19.084Z,2.10
2023-03-25T06:27:48.618Z,1.90
2023-03-25T06:30:22.305Z,1.92
2023-03-25T06:32:50.928Z,2.25
2023-03-25T06:35:20.819Z,2.50
2023-03-25T06:37:48.855Z,2.53
2023-03-25T06:40:16.119Z,2.45
2023-03-25T06:42:42.857Z,1.95
2023-03-25T06:45:16.118Z,2.05
2023-03-25T06:47:42.816Z,2.60
2023-03-25T06:50:09.888Z,1.70
2023-03-25T06:52:38.731Z,2.08
2023-03-25T06:55:05.754Z,1.70
2023-03-25T06:57:32.389Z,1.77
2023-03-25T07:00:05.787Z,2.10
2023-03-25T07:02:32.457Z,2.20
2023-03-25T07:04:59.063Z,1.77
2023-03-25T07:07:31.196Z,1.83
2023-03-25T07:09:57.831Z,2.45
2023-03-25T07:12:25.322Z,1.50
2023-03-25T07:14:53.430Z,2.17
2023-03-25T07:17:20.582Z,2.10
2023-03-25T07:19:47.571Z,2.50
2023-03-25T07:22:16.703Z,2.17
2023-03-25T07:24:43.582Z,2.55
2023-03-25T07:27:14.860Z,2.47
2023-03-25T07:29:41.488Z,2.08
2023-03-25T07:32:08.234Z,2.05
2023-03-25T07:34:38.230Z,2.55
2023-03-25T07:37:08.204Z,2.63
2023-03-25T07:39:37.147Z,1.70
2023-03-25T07:42:08.542Z,2.22
2023-03-25T07:44:37.813Z,2.20
2023-03-25T07:47:09.133Z,2.00
2023-03-25T07:49:35.778Z,2.08
2023-03-25T07:52:04.572Z,2.20
2023-03-25T07:54:31.164Z,1.88
2023-03-25T07:56:58.061Z,2.15
2023-03-25T07:59:26.974Z,2.25
2023-03-25T08:02:00.112Z,2.30
2023-03-25T08:04:26.743Z,2.55
2023-03-25T08:06:53.652Z,3.42
2023-03-25T08:09:22.406Z,2.65
2023-03-25T08:11:51.485Z,2.58
2023-03-25T08:14:20.300Z,1.48
2023-03-25T08:16:47.145Z,2.20
2023-03-25T08:19:14.238Z,1.98
2023-03-25T08:21:41.259Z,3.17
2023-03-25T08:24:08.175Z,2.97
2023-03-25T08:26:35.377Z,2.47
2023-03-25T08:29:02.982Z,2.40
2023-03-25T08:31:32.274Z,2.55
2023-03-25T08:34:02.915Z,2.28
2023-03-25T08:36:29.586Z,2.42
2023-03-25T08:39:01.465Z,2.13
2023-03-25T08:41:28.082Z,2.17
2023-03-25T08:43:54.720Z,2.15
2023-03-25T08:46:21.497Z,2.50
2023-03-25T08:48:50.298Z,2.78
2023-03-25T08:51:17.337Z,2.67
2023-03-25T08:53:43.948Z,2.55
2023-03-25T08:56:13.569Z,2.55
2023-03-25T08:58:40.821Z,2.28
2023-03-25T09:01:07.820Z,2.92
2023-03-25T09:03:38.752Z,2.65
2023-03-25T09:06:06.121Z,2.53
2023-03-25T09:08:33.198Z,3.90
2023-03-25T09:11:00.267Z,3.33
2023-03-25T09:13:26.879Z,3.65
2023-03-25T09:15:53.847Z,2.50
2023-03-25T09:18:21.174Z,3.45
2023-03-25T09:20:52.055Z,3.10
2023-03-25T09:23:18.651Z,3.28
2023-03-25T09:25:46.346Z,3.45
2023-03-25T09:28:15.424Z,3.03
2023-03-25T09:30:42.069Z,2.88
2023-03-25T09:33:12.147Z,3.08
2023-03-25T09:35:40.928Z,3.50
2023-03-25T09:38:07.667Z,2.92
2023-03-25T09:40:37.138Z,4.03
2023-03-25T09:43:09.182Z,3.30
2023-03-25T09:45:47.298Z,3.15
2023-03-25T09:48:22.743Z,3.30
2023-03-25T09:50:49.601Z,2.97
2023-03-25T09:53:26.531Z,3.00
2023-03-25T09:55:53.804Z,2.72
2023-03-25T09:58:29.478Z,3.08
2023-03-25T10:01:04.600Z,3.35
2023-03-25T10:04:00.773Z,3.47
2023-03-25T10:06:30.591Z,3.50
2023-03-25T10:08:59.413Z,3.58
2023-03-25T10:11:52.005Z,3.10
2023-03-25T10:14:29.480Z,3.17
2023-03-25T10:16:58.865Z,3.58
2023-03-25T10:19:51.244Z,3.42
2023-03-25T10:22:38.931Z,3.70
2023-03-25T10:25:15.986Z,3.33
2023-03-25T10:27:51.791Z,3.92
2023-03-25T10:30:39.093Z,3.40
2023-03-25T10:33:15.477Z,3.25
2023-03-25T10:35:48.438Z,2.92
2023-03-25T10:38:20.841Z,2.92
2023-03-25T10:40:53.377Z,3.67
2023-03-25T10:43:38.234Z,3.50
2023-03-25T10:46:22.965Z,3.00
2023-03-25T10:48:52.869Z,3.13
2023-03-25T10:51:28.315Z,2.72
2023-03-25T10:53:57.985Z,2.85
2023-03-25T10:56:32.769Z,3.13
2023-03-25T10:59:04.292Z,2.80
2023-03-25T11:01:33.952Z,2.40
2023-03-25T11:04:04.980Z,2.42
2023-03-25T11:06:36.523Z,2.67
2023-03-25T11:09:40.945Z,2.67
2023-03-25T11:12:10.035Z,3.38
2023-03-25T11:14:40.814Z,2.17
2023-03-25T11:17:15.013Z,2.17
2023-03-25T11:19:54.485Z,2.65
2023-03-25T11:22:33.926Z,2.17
2023-03-25T11:25:05.860Z,1.95
2023-03-25T11:27:44.172Z,2.00
2023-03-25T11:30:17.675Z,1.67
2023-03-25T11:32:47.385Z,1.70
2023-03-25T11:35:29.159Z,1.92
2023-03-25T11:37:59.187Z,1.75
2023-03-25T11:40:28.488Z,1.55
2023-03-25T11:43:00.557Z,1.42
2023-03-25T11:45:39.228Z,1.38
2023-03-25T11:48:18.256Z,1.60
2023-03-25T11:50:54.545Z,1.45
2023-03-25T11:53:24.725Z,1.73
2023-03-25T11:55:55.417Z,1.88
2023-03-25T11:58:28.733Z,1.77
2023-03-25T12:01:07.513Z,1.52
2023-03-25T12:03:35.421Z,1.42
2023-03-25T12:06:16.586Z,2.28
2023-03-25T12:08:52.363Z,2.03
2023-03-25T12:11:51.197Z,1.65
2023-03-25T12:14:35.662Z,1.80
2023-03-25T12:17:15.774Z,1.83
2023-03-25T12:19:48.184Z,1.83
2023-03-25T12:22:28.282Z,1.55
2023-03-25T12:25:13.532Z,1.95
2023-03-25T12:28:10.360Z,1.95
2023-03-25T12:31:04.255Z,2.00
2023-03-25T12:33:46.286Z,2.03
2023-03-25T12:36:30.581Z,1.77
2023-03-25T12:39:15.702Z,2.40
2023-03-25T12:41:42.225Z,1.73
2023-03-25T12:44:08.790Z,2.15
2023-03-25T12:46:49.937Z,1.88
2023-03-25T12:49:49.803Z,1.85
2023-03-25T12:52:28.411Z,1.40
2023-03-25T12:55:16.051Z,1.95
2023-03-25T12:57:56.916Z,1.88
2023-03-25T13:00:47.281Z,1.33
2023-03-25T13:03:19.506Z,1.48
2023-03-25T13:05:54.301Z,1.67
2023-03-25T13:08:30.724Z,1.48
2023-03-25T13:11:09.132Z,1.67
2023-03-25T13:13:41.906Z,1.52
2023-03-25T13:16:25.032Z,2.90
2023-03-25T13:19:00.396Z,1.83
2023-03-25T13:21:30.987Z,1.70
2023-03-25T13:24:16.625Z,1.88
2023-03-25T13:26:46.120Z,1.42
2023-03-25T13:29:30.740Z,1.20
2023-03-25T13:32:09.722Z,1.00
2023-03-25T13:34:51.543Z,1.65
2023-03-25T13:37:31.770Z,1.10
2023-03-25T13:40:10.551Z,1.08
2023-03-25T13:42:46.362Z,1.65
2023-03-25T13:45:21.272Z,1.10
2023-03-25T13:48:01.456Z,1.38
2023-03-25T13:50:32.591Z,1.20
2023-03-25T13:53:37.968Z,1.50
2023-03-25T13:56:07.480Z,1.38
2023-03-25T13:58:43.299Z,1.30
2023-03-25T14:01:25.073Z,1.52
2023-03-25T14:04:11.704Z,1.27
2023-03-25T14:07:00.270Z,3.03
2023-03-25T14:09:56.880Z,1.75
2023-03-25T14:12:27.489Z,1.63
2023-03-25T14:15:09.346Z,1.55
2023-03-25T14:17:37.164Z,2.03
2023-03-25T14:20:08.648Z,1.25
2023-03-25T14:22:43.913Z,1.23
2023-03-25T14:25:32.726Z,1.65
2023-03-25T14:28:01.418Z,1.98
2023-03-25T14:30:32.537Z,1.98
2023-03-25T14:33:03.377Z,1.60
2023-03-25T14:35:33.408Z,1.48
2023-03-25T14:38:43.079Z,1.63
2023-03-25T14:41:09.937Z,1.17
2023-03-25T14:43:41.537Z,1.30
2023-03-25T14:46:10.902Z,1.17
2023-03-25T14:48:45.041Z,1.30
2023-03-25T14:51:23.099Z,1.67
2023-03-25T14:54:05.564Z,1.45
2023-03-25T14:56:38.199Z,1.33
2023-03-25T14:59:15.643Z,1.58
2023-03-25T15:01:47.209Z,1.50
2023-03-25T15:04:24.929Z,1.50
2023-03-25T15:06:57.714Z,1.70
2023-03-25T15:09:27.404Z,1.23
2023-03-25T15:12:01.162Z,1.92
2023-03-25T15:14:32.692Z,1.40
2023-03-25T15:17:06.674Z,1.80
2023-03-25T15:20:15.603Z,1.77
2023-03-25T15:22:42.652Z,1.52
2023-03-25T15:25:18.879Z,1.80
2023-03-25T15:28:03.106Z,1.80
2023-03-25T15:30:52.271Z,1.50
2023-03-25T15:33:40.637Z,1.83
2023-03-25T15:36:28.058Z,1.63
2023-03-25T15:39:18.525Z,1.90
2023-03-25T15:42:11.102Z,1.83
2023-03-25T15:44:50.548Z,1.35
2023-03-25T15:47:29.771Z,1.60
2023-03-25T15:50:14.643Z,1.25
2023-03-25T15:53:02.413Z,1.60
2023-03-25T15:55:40.953Z,1.65
2023-03-25T15:58:18.296Z,2.08
2023-03-25T16:00:48.670Z,1.55
2023-03-25T16:03:21.178Z,1.67
2023-03-25T16:05:53.775Z,1.67
2023-03-25T16:08:28.333Z,1.63
2023-03-25T16:10:54.873Z,1.63
2023-03-25T16:13:25.834Z,1.63
2023-03-25T16:15:58.085Z,1.42
2023-03-25T16:18:25.423Z,1.60
2023-03-25T16:21:01.566Z,1.45
2023-03-25T16:23:30.729Z,1.27
2023-03-25T16:25:57.348Z,2.13
2023-03-25T16:28:40.797Z,1.10
2023-03-25T16:31:34.364Z,1.67
2023-03-25T16:34:01.719Z,1.40
2023-03-25T16:36:31.252Z,1.02
2023-03-25T16:38:58.093Z,1.75
2023-03-25T16:41:25.952Z,1.67
2023-03-25T16:43:54.859Z,2.33
2023-03-25T16:46:24.231Z,2.30
2023-03-25T16:48:54.170Z,1.60
2023-03-25T16:51:29.805Z,2.30
2023-03-25T16:54:00.862Z,2.00
2023-03-25T16:56:32.574Z,1.92
2023-03-25T16:59:07.850Z,1.58
2023-03-25T17:01:39.478Z,2.15
2023-03-25T17:04:22.245Z,1.50
2023-03-25T17:06:53.081Z,1.63
2023-03-25T17:09:33.969Z,1.60
2023-03-25T17:12:06.490Z,1.92
2023-03-25T17:14:37.857Z,1.98
2023-03-25T17:17:13.438Z,1.88
2023-03-25T17:19:47.040Z,1.90
2023-03-25T17:22:26.686Z,1.80
2023-03-25T17:25:01.278Z,2.03
2023-03-25T17:27:36.730Z,1.73
2023-03-25T17:30:20.938Z,1.73
2023-03-25T17:32:48.501Z,2.22
2023-03-25T17:35:24.191Z,1.50
2023-03-25T17:37:51.109Z,1.70
2023-03-25T17:40:25.341Z,1.65
2023-03-25T17:42:53.557Z,2.20
2023-03-25T17:45:22.855Z,2.53
2023-03-25T17:47:51.298Z,2.13
2023-03-25T17:50:27.581Z,1.90
2023-03-25T17:52:55.220Z,2.40
2023-03-25T17:55:22.080Z,2.05
2023-03-25T17:57:49.906Z,2.30
2023-03-25T18:00:18.762Z,1.90
2023-03-25T18:02:46.721Z,2.00
2023-03-25T18:05:13.548Z,2.25
2023-03-25T18:07:41.925Z,2.47
2023-03-25T18:10:19.146Z,2.70
2023-03-25T18:12:46.585Z,2.00
2023-03-25T18:15:13.412Z,1.90
2023-03-25T18:17:40.183Z,2.42
2023-03-25T18:20:14.697Z,2.03
2023-03-25T18:22:41.735Z,2.08
2023-03-25T18:25:10.715Z,2.55
2023-03-25T18:27:43.697Z,2.22
2023-03-25T18:30:26.573Z,2.10
2023-03-25T18:32:53.274Z,1.95
2023-03-25T18:35:20.797Z,2.28
2023-03-25T18:37:49.890Z,2.25
2023-03-25T18:40:23.437Z,1.90
2023-03-25T18:42:51.688Z,1.83
2023-03-25T18:45:19.843Z,1.70
2023-03-25T18:47:46.632Z,1.67
2023-03-25T18:50:31.445Z,1.50
2023-03-25T18:52:59.100Z,2.17
2023-03-25T18:55:30.780Z,2.17
2023-03-25T18:57:58.649Z,2.28
2023-03-25T19:00:37.266Z,1.92
2023-03-25T19:03:04.450Z,3.03
2023-03-25T19:05:31.884Z,2.13
2023-03-25T19:08:01.195Z,2.90
2023-03-25T19:10:35.243Z,1.73
2023-03-25T19:13:04.327Z,0.77
2023-03-25T19:15:32.345Z,1.67
2023-03-25T19:18:01.702Z,2.00
2023-03-25T19:20:32.288Z,1.92
2023-03-25T19:22:59.616Z,1.90
2023-03-25T19:25:26.693Z,2.38
2023-03-25T19:27:54.034Z,2.08
2023-03-25T19:30:24.140Z,1.52
2023-03-25T19:32:54.055Z,1.77
2023-03-25T19:35:24.310Z,1.27
2023-03-25T19:37:56.398Z,1.08
2023-03-25T19:40:26.176Z,1.13
2023-03-25T19:43:00.081Z,1.10
2023-03-25T19:45:28.054Z,1.38
2023-03-25T19:47:54.750Z,1.25
2023-03-25T19:50:27.567Z,1.20
2023-03-25T19:52:55.890Z,1.42
2023-03-25T19:55:23.916Z,1.00
2023-03-25T19:57:51.155Z,1.10
2023-03-25T20:00:21.961Z,1.40
2023-03-25T20:02:51.582Z,1.00
2023-03-25T20:05:22.328Z,1.15
2023-03-25T20:07:50.958Z,1.23
2023-03-25T20:10:21.082Z,0.98
2023-03-25T20:12:49.505Z,1.13
2023-03-25T20:15:19.600Z,1.30
2023-03-25T20:17:49.637Z,1.30
2023-03-25T20:20:16.852Z,1.00
2023-03-25T20:22:48.284Z,1.15
2023-03-25T20:25:16.643Z,1.65
2023-03-25T20:27:43.932Z,1.60
2023-03-25T20:30:15.444Z,1.67
2023-03-25T20:32:47.535Z,1.50
2023-03-25T20:35:16.548Z,1.27
2023-03-25T20:37:45.696Z,1.35
2023-03-25T20:40:18.146Z,0.93
2023-03-25T20:42:48.606Z,1.10
2023-03-25T20:45:20.162Z,1.02
2023-03-25T20:47:47.161Z,1.00
2023-03-25T20:50:16.457Z,0.85
2023-03-25T20:52:43.876Z,1.00
2023-03-25T20:55:11.475Z,0.95
2023-03-25T20:57:38.948Z,1.08
2023-03-25T21:00:13.390Z,1.00
2023-03-25T21:02:41.603Z,1.35
2023-03-25T21:05:08.422Z,1.10
2023-03-25T21:07:35.596Z,1.25
2023-03-25T21:10:02.459Z,1.08
2023-03-25T21:12:42.607Z,1.30
2023-03-25T21:15:11.472Z,1.50
2023-03-25T21:17:42.625Z,1.27
2023-03-25T21:20:10.319Z,1.50
2023-03-25T21:22:43.145Z,1.45
2023-03-25T21:25:10.667Z,1.15
2023-03-25T21:27:38.422Z,1.35
2023-03-25T21:30:07.901Z,1.30
2023-03-25T21:32:34.747Z,1.90
2023-03-25T21:35:03.935Z,1.98
2023-03-25T21:37:35.677Z,1.98
2023-03-25T21:40:02.695Z,2.33
2023-03-25T21:42:29.348Z,1.35
2023-03-25T21:44:55.958Z,1.85
2023-03-25T21:47:22.586Z,1.80
2023-03-25T21:49:51.556Z,2.33
2023-03-25T21:52:22.312Z,1.90
2023-03-25T21:54:50.854Z,1.83
2023-03-25T21:57:17.437Z,2.90
2023-03-25T21:59:44.043Z,1.88
2023-03-25T22:02:14.275Z,2.30
2023-03-25T22:04:41.396Z,1.77
2023-03-25T22:07:10.331Z,2.15
2023-03-25T22:09:37.337Z,2.10
2023-03-25T22:12:06.782Z,1.83
2023-03-25T22:14:36.188Z,2.35
2023-03-25T22:17:02.902Z,1.75
2023-03-25T22:19:33.064Z,2.97
2023-03-25T22:22:04.507Z,2.33
2023-03-25T22:24:31.386Z,2.90
2023-03-25T22:26:58.305Z,2.40
2023-03-25T22:29:24.904Z,2.72
2023-03-25T22:31:55.756Z,2.17
2023-03-25T22:34:22.415Z,2.30
2023-03-25T22:36:53.040Z,3.00
2023-03-25T22:39:20.847Z,2.40
2023-03-25T22:41:52.292Z,2.75
2023-03-25T22:44:19.168Z,2.67
2023-03-25T22:46:47.237Z,2.95
2023-03-25T22:49:14.721Z,3.10
2023-03-25T22:51:41.726Z,3.22
2023-03-25T22:54:09.974Z,3.10
2023-03-25T22:56:37.508Z,3.20
2023-03-25T22:59:10.315Z,4.00
2023-03-25T23:01:37.097Z,3.50
2023-03-25T23:04:04.390Z,3.17
2023-03-25T23:06:35.532Z,3.63
2023-03-25T23:09:04.912Z,4.13
2023-03-25T23:11:31.831Z,3.92
2023-03-25T23:14:07.435Z,3.50
2023-03-25T23:16:34.660Z,4.97
2023-03-25T23:19:02.939Z,4.43
2023-03-25T23:21:31.834Z,5.38
2023-03-25T23:24:00.561Z,5.10
2023-03-25T23:26:30.005Z,5.28
2023-03-25T23:29:00.721Z,5.22
2023-03-25T23:31:33.981Z,6.18
2023-03-25T23:34:04.403Z,5.35
2023-03-25T23:36:34.405Z,5.10
2023-03-25T23:39:02.279Z,5.13
2023-03-25T23:41:29.720Z,6.18
2023-03-25T23:43:56.649Z,5.20
2023-03-25T23:46:24.888Z,4.80
2023-03-25T23:48:54.827Z,5.90
2023-03-25T23:51:24.091Z,5.25
2023-03-25T23:53:51.749Z,5.50
2023-03-25T23:56:20.872Z,6.07
2023-03-25T23:58:50.319Z,5.10
